Time;durP1;ratioP1;P1;durP2;ratioP2;P2;SDS_P1;SDS_P2;PMS_P1;PMS_P2;Temp;Humidity;BMP_temperature;BMP_pressure;BME280_temperature;BME280_humidity;BME280_pressure;Samples;Min_cycle;Max_cycle;Signal;HPM_P1;HPM_P2
2023/05/21 00:01:44;;;;;;;2.50;0.65;;;15.80;98.60;;;;;;5085145;28;20573;-71
2023/05/21 00:04:11;;;;;;;2.53;0.80;;;15.70;98.50;;;;;;5084064;28;20031;-72
2023/05/21 00:06:37;;;;;;;4.80;0.70;;;15.70;98.70;;;;;;5084698;28;20154;-74
2023/05/21 00:09:04;;;;;;;2.55;0.98;;;15.70;98.90;;;;;;5085571;28;20108;-71
2023/05/21 00:11:30;;;;;;;1.45;0.70;;;15.70;99.10;;;;;;5083634;28;20032;-71
2023/05/21 00:13:59;;;;;;;1.85;0.60;;;15.70;99.10;;;;;;5084869;28;20083;-70
2023/05/21 00:16:24;;;;;;;1.58;0.70;;;15.70;99.10;;;;;;5084035;28;20024;-71
2023/05/21 00:18:50;;;;;;;2.17;0.80;;;15.70;99.20;;;;;;5090601;28;20030;-70
2023/05/21 00:21:16;;;;;;;2.70;0.75;;;15.70;99.20;;;;;;5094300;27;20170;-73
2023/05/21 00:23:42;;;;;;;1.13;0.63;;;15.60;99.40;;;;;;5091136;28;20082;-72
2023/05/21 00:26:11;;;;;;;1.33;0.70;;;15.60;99.70;;;;;;5094414;27;20480;-71
2023/05/21 00:28:36;;;;;;;2.03;0.70;;;15.60;99.80;;;;;;5091548;28;20028;-71
2023/05/21 00:31:02;;;;;;;1.60;0.88;;;15.70;99.80;;;;;;5092620;28;20714;-71
2023/05/21 00:33:28;;;;;;;2.05;1.00;;;15.70;99.80;;;;;;5091265;28;20626;-71
2023/05/21 00:35:54;;;;;;;2.33;0.80;;;15.60;99.90;;;;;;5092378;27;20040;-72
2023/05/21 00:38:20;;;;;;;3.92;1.00;;;15.60;99.90;;;;;;5092143;28;20377;-72
2023/05/21 00:40:49;;;;;;;2.92;1.30;;;15.60;99.90;;;;;;5097512;27;20066;-69
2023/05/21 00:43:18;;;;;;;2.20;0.95;;;15.70;99.90;;;;;;5084125;28;20039;-69
2023/05/21 00:45:52;;;;;;;6.20;0.90;;;15.60;99.90;;;;;;5096089;27;20038;-70
2023/05/21 00:48:22;;;;;;;2.72;0.90;;;15.60;99.90;;;;;;5084772;28;20111;-71
2023/05/21 00:50:48;;;;;;;1.85;1.00;;;15.60;99.90;;;;;;5100218;27;20036;-70
2023/05/21 00:53:18;;;;;;;4.18;0.70;;;15.60;99.90;;;;;;5090538;28;20104;-72
2023/05/21 00:55:45;;;;;;;2.35;0.70;;;15.60;99.90;;;;;;5096645;28;20040;-70
2023/05/21 00:58:17;;;;;;;2.53;0.70;;;15.60;99.90;;;;;;5090494;28;20710;-71
2023/05/21 01:00:43;;;;;;;2.50;1.20;;;15.60;99.90;;;;;;5087150;28;20036;-72
2023/05/21 01:03:09;;;;;;;2.15;1.30;;;15.60;99.90;;;;;;5090420;28;20028;-70
2023/05/21 01:05:35;;;;;;;1.73;1.17;;;15.60;99.90;;;;;;5093969;27;20142;-71
2023/05/21 01:08:01;;;;;;;5.20;0.77;;;15.60;99.90;;;;;;5094378;28;20052;-71
2023/05/21 01:10:28;;;;;;;6.20;0.93;;;15.60;99.90;;;;;;5097987;28;20043;-70
2023/05/21 01:12:56;;;;;;;2.45;0.88;;;15.60;99.90;;;;;;5100268;27;20028;-71
2023/05/21 01:15:22;;;;;;;4.15;0.75;;;15.60;99.90;;;;;;5091988;28;20036;-71
2023/05/21 01:17:50;;;;;;;2.50;1.30;;;15.60;99.90;;;;;;5095330;28;20032;-72
2023/05/21 01:20:27;;;;;;;2.30;1.00;;;15.50;99.90;;;;;;5098168;27;20081;-71
2023/05/21 01:22:56;;;;;;;2.42;1.08;;;15.60;99.90;;;;;;5090877;28;20143;-71
2023/05/21 01:25:23;;;;;;;2.85;0.98;;;15.60;99.90;;;;;;5095865;28;20092;-71
2023/05/21 01:27:49;;;;;;;2.85;1.23;;;15.50;99.90;;;;;;5098331;27;20036;-71
2023/05/21 01:30:20;;;;;;;3.25;1.25;;;15.50;99.90;;;;;;5094224;28;20679;-72
2023/05/21 01:32:45;;;;;;;;;;;15.50;99.90;;;;;;5089926;28;20133;-72
2023/05/21 01:35:16;;;;;;;3.05;0.93;;;15.50;99.90;;;;;;5088239;28;20291;-71
2023/05/21 01:38:06;;;;;;;3.83;0.90;;;15.50;99.90;;;;;;5087378;28;20032;-72
2023/05/21 01:40:40;;;;;;;1.50;0.70;;;15.50;99.90;;;;;;5098441;28;20039;-73
2023/05/21 01:43:08;;;;;;;2.58;1.25;;;15.40;99.90;;;;;;5094351;27;20035;-72
2023/05/21 01:45:38;;;;;;;5.90;1.10;;;15.40;99.90;;;;;;5085763;28;20519;-72
2023/05/21 01:48:05;;;;;;;2.13;1.10;;;15.40;99.90;;;;;;5088052;28;20032;-73
2023/05/21 01:50:36;;;;;;;4.50;0.98;;;15.40;99.90;;;;;;5087693;28;20040;-72
2023/05/21 01:53:02;;;;;;;3.42;0.93;;;15.40;99.90;;;;;;5087455;28;20615;-71
2023/05/21 01:55:30;;;;;;;1.30;0.80;;;15.40;99.90;;;;;;5087783;28;20062;-72
2023/05/21 01:57:58;;;;;;;3.45;1.15;;;15.40;99.90;;;;;;5087099;28;20071;-72
2023/05/21 02:00:27;;;;;;;2.88;0.98;;;15.40;99.90;;;;;;5089622;28;20032;-72
2023/05/21 02:02:55;;;;;;;2.13;0.98;;;15.40;99.90;;;;;;5090514;28;20411;-74
2023/05/21 02:05:21;;;;;;;1.83;1.00;;;15.40;99.90;;;;;;5087864;28;20051;-73
2023/05/21 02:07:50;;;;;;;3.72;1.60;;;15.40;99.90;;;;;;5094641;28;20115;-71
2023/05/21 02:10:19;;;;;;;3.05;1.45;;;15.40;99.90;;;;;;5086471;28;20081;-71
2023/05/21 02:12:47;;;;;;;3.58;1.45;;;15.40;99.90;;;;;;5085116;28;20036;-70
2023/05/21 02:15:19;;;;;;;9.75;1.23;;;15.40;99.90;;;;;;5099771;28;20032;-71
2023/05/21 02:17:50;;;;;;;3.25;1.20;;;15.30;99.90;;;;;;5089337;27;20463;-72
2023/05/21 02:20:16;;;;;;;4.10;1.02;;;15.30;99.90;;;;;;5085954;28;20020;-73
2023/05/21 02:22:46;;;;;;;5.00;1.42;;;15.30;99.90;;;;;;5089712;28;20039;-72
2023/05/21 02:25:17;;;;;;;;;;;15.30;99.90;;;;;;5090428;28;20389;-70
2023/05/21 02:27:43;;;;;;;3.78;1.13;;;15.30;99.90;;;;;;5089441;28;19912;-72
2023/05/21 02:30:11;;;;;;;4.35;1.45;;;15.30;99.90;;;;;;5087286;28;20472;-71
2023/05/21 02:32:38;;;;;;;2.78;1.30;;;15.20;99.90;;;;;;5084329;28;20048;-73
2023/05/21 02:35:04;;;;;;;3.03;1.20;;;15.20;99.90;;;;;;5095484;28;20032;-71
2023/05/21 02:37:32;;;;;;;3.00;1.63;;;15.20;99.90;;;;;;5091828;28;20032;-72
2023/05/21 02:39:59;;;;;;;2.67;1.35;;;15.20;99.90;;;;;;5085283;28;20020;-70
2023/05/21 02:42:24;;;;;;;3.60;1.40;;;15.20;99.90;;;;;;5085493;28;20036;-73
2023/05/21 02:44:51;;;;;;;3.63;1.80;;;15.20;99.90;;;;;;5085862;28;20032;-71
2023/05/21 02:47:18;;;;;;;5.00;1.30;;;15.20;99.90;;;;;;5090021;28;20036;-71
2023/05/21 02:49:49;;;;;;;3.97;1.20;;;15.20;99.90;;;;;;5088220;27;20143;-72
2023/05/21 02:52:17;;;;;;;4.43;1.75;;;15.10;99.90;;;;;;5086980;28;20033;-71
2023/05/21 02:54:46;;;;;;;3.03;1.35;;;15.10;99.90;;;;;;5085938;28;20036;-71
2023/05/21 02:57:17;;;;;;;3.58;1.67;;;15.10;99.90;;;;;;5084281;28;20119;-71
2023/05/21 02:59:44;;;;;;;2.72;1.33;;;15.10;99.90;;;;;;5090267;27;20024;-71
2023/05/21 03:02:10;;;;;;;2.88;1.33;;;15.20;99.90;;;;;;5085709;28;20040;-71
2023/05/21 03:04:44;;;;;;;3.85;1.50;;;15.10;99.90;;;;;;5087781;27;20020;-71
2023/05/21 03:07:14;;;;;;;2.80;1.30;;;15.00;99.90;;;;;;5079639;28;20062;-72
2023/05/21 03:09:41;;;;;;;2.45;1.42;;;15.10;99.90;;;;;;5084142;28;20028;-71
2023/05/21 03:12:07;;;;;;;3.13;1.42;;;15.10;99.90;;;;;;5085747;28;20028;-72
2023/05/21 03:14:34;;;;;;;3.90;1.77;;;15.10;99.90;;;;;;5085340;28;20128;-73
2023/05/21 03:17:06;;;;;;;2.30;1.30;;;15.00;99.90;;;;;;5084098;28;20038;-71
2023/05/21 03:19:35;;;;;;;3.55;1.30;;;15.00;99.90;;;;;;5089162;28;20553;-72
2023/05/21 03:22:21;;;;;;;2.50;1.48;;;15.00;99.90;;;;;;5084537;28;20043;-70
2023/05/21 03:24:49;;;;;;;3.85;1.75;;;15.10;99.90;;;;;;5083305;28;20040;-72
2023/05/21 03:27:15;;;;;;;4.30;1.45;;;15.00;99.90;;;;;;5086016;28;20032;-71
2023/05/21 03:29:44;;;;;;;2.95;1.50;;;15.00;99.90;;;;;;5091552;28;20024;-71
2023/05/21 03:32:13;;;;;;;5.43;1.40;;;15.00;99.90;;;;;;5091389;28;20071;-72
2023/05/21 03:34:39;;;;;;;3.35;1.50;;;15.00;99.90;;;;;;5087503;28;20040;-72
2023/05/21 03:37:10;;;;;;;3.53;1.67;;;15.00;99.90;;;;;;5085465;28;20047;-71
2023/05/21 03:39:36;;;;;;;4.32;1.80;;;15.00;99.90;;;;;;5087649;28;20058;-72
2023/05/21 03:42:02;;;;;;;5.13;1.83;;;15.00;99.90;;;;;;5090406;28;20073;-71
2023/05/21 03:44:31;;;;;;;2.30;1.30;;;15.00;99.90;;;;;;5085400;28;20111;-72
2023/05/21 03:46:56;;;;;;;3.47;1.52;;;15.00;99.90;;;;;;5084312;28;20047;-73
2023/05/21 03:49:23;;;;;;;2.95;1.00;;;15.00;99.90;;;;;;5094142;28;20081;-73
2023/05/21 03:51:49;;;;;;;6.93;1.58;;;15.00;99.90;;;;;;5082460;28;20520;-72
2023/05/21 03:54:15;;;;;;;3.30;1.77;;;15.00;99.90;;;;;;5083408;28;20024;-72
2023/05/21 03:56:40;;;;;;;4.70;1.40;;;14.90;99.90;;;;;;5085017;28;20084;-72
2023/05/21 03:59:06;;;;;;;2.67;1.30;;;15.00;99.90;;;;;;5087490;28;20032;-72
2023/05/21 04:01:32;;;;;;;3.47;1.70;;;15.00;99.90;;;;;;5089153;28;20502;-71
2023/05/21 04:03:57;;;;;;;4.28;1.58;;;15.00;99.90;;;;;;5084551;28;20027;-72
2023/05/21 04:06:26;;;;;;;3.50;1.55;;;15.00;99.90;;;;;;5085624;28;20035;-71
2023/05/21 04:08:58;;;;;;;3.17;1.30;;;15.00;99.90;;;;;;5085128;28;20020;-72
2023/05/21 04:11:27;;;;;;;2.38;1.45;;;15.10;99.90;;;;;;5084403;28;20086;-73
2023/05/21 04:13:55;;;;;;;3.08;1.35;;;15.10;99.90;;;;;;5083103;28;20063;-72
2023/05/21 04:16:23;;;;;;;3.72;1.50;;;15.00;99.90;;;;;;5083835;28;20087;-73
2023/05/21 04:18:48;;;;;;;6.32;1.55;;;15.10;99.90;;;;;;5082936;28;20028;-72
2023/05/21 04:21:20;;;;;;;3.95;1.80;;;15.00;99.90;;;;;;5085627;28;20365;-72
2023/05/21 04:23:52;;;;;;;4.03;1.70;;;15.10;99.90;;;;;;5084482;28;20047;-71
2023/05/21 04:26:24;;;;;;;2.13;1.27;;;15.10;99.90;;;;;;5078371;28;20028;-72
2023/05/21 04:28:54;;;;;;;3.10;1.30;;;15.00;99.90;;;;;;5084614;28;20033;-71
2023/05/21 04:31:20;;;;;;;2.42;1.35;;;15.00;99.90;;;;;;5087815;28;20048;-72
2023/05/21 04:33:46;;;;;;;3.40;1.40;;;15.00;99.90;;;;;;5086641;28;20050;-72
2023/05/21 04:36:18;;;;;;;3.30;1.27;;;15.10;99.90;;;;;;5086560;28;20028;-71
2023/05/21 04:38:43;;;;;;;4.35;1.42;;;15.10;99.90;;;;;;5088428;28;20042;-71
2023/05/21 04:41:13;;;;;;;4.43;1.40;;;15.10;99.90;;;;;;5085140;28;20024;-73
2023/05/21 04:43:42;;;;;;;3.80;1.30;;;15.10;99.90;;;;;;5084644;28;20036;-71
2023/05/21 04:46:08;;;;;;;5.38;1.55;;;15.20;99.90;;;;;;5083835;28;20040;-70
2023/05/21 04:48:34;;;;;;;3.22;1.45;;;15.20;99.90;;;;;;5082781;28;20047;-75
2023/05/21 04:51:04;;;;;;;3.28;1.35;;;15.20;99.90;;;;;;5090677;28;20070;-72
2023/05/21 04:53:30;;;;;;;;;;;15.20;99.90;;;;;;5083777;28;20071;-71
2023/05/21 04:55:59;;;;;;;2.80;1.30;;;15.10;99.90;;;;;;5082680;28;20291;-71
2023/05/21 04:58:27;;;;;;;2.50;1.40;;;15.20;99.90;;;;;;5085765;28;20031;-71
2023/05/21 05:01:02;;;;;;;3.95;1.48;;;15.20;99.90;;;;;;5085068;28;20116;-72
2023/05/21 05:03:31;;;;;;;1.98;1.02;;;15.20;99.90;;;;;;5077152;28;20054;-73
2023/05/21 05:05:56;;;;;;;4.75;1.20;;;15.20;99.90;;;;;;5090657;28;20036;-72
2023/05/21 05:08:22;;;;;;;2.83;1.20;;;15.20;99.90;;;;;;5093459;28;20043;-72
2023/05/21 05:10:54;;;;;;;1.58;0.90;;;15.20;99.90;;;;;;5094683;28;20036;-73
2023/05/21 05:13:19;;;;;;;7.05;2.38;;;15.30;99.90;;;;;;5079765;28;20059;-71
2023/05/21 05:15:45;;;;;;;1.77;0.95;;;15.30;99.90;;;;;;5086347;28;20135;-72
2023/05/21 05:18:11;;;;;;;4.30;1.10;;;15.30;99.90;;;;;;5088703;28;20039;-71
2023/05/21 05:20:37;;;;;;;2.17;1.30;;;15.30;99.90;;;;;;5086197;28;20127;-70
2023/05/21 05:23:02;;;;;;;3.65;1.05;;;15.30;99.90;;;;;;5086794;28;20111;-71
2023/05/21 05:25:31;;;;;;;3.38;2.20;;;15.40;99.90;;;;;;5091626;28;20369;-72
2023/05/21 05:27:57;;;;;;;2.75;1.17;;;15.40;99.90;;;;;;5090404;28;20686;-71
2023/05/21 05:30:22;;;;;;;2.95;1.50;;;15.40;99.90;;;;;;5088745;28;20044;-71
2023/05/21 05:32:51;;;;;;;4.25;1.63;;;15.40;99.90;;;;;;5085018;28;20652;-71
2023/05/21 05:35:19;;;;;;;3.03;1.25;;;15.40;99.90;;;;;;5091482;28;20060;-71
2023/05/21 05:37:45;;;;;;;4.32;1.48;;;15.40;99.90;;;;;;5095751;28;20111;-73
2023/05/21 05:40:19;;;;;;;3.60;1.60;;;15.50;99.90;;;;;;5085775;28;20518;-71
2023/05/21 05:42:45;;;;;;;6.32;1.98;;;15.50;99.90;;;;;;5087648;27;20031;-72
2023/05/21 05:45:11;;;;;;;2.42;1.35;;;15.40;99.90;;;;;;5088620;28;20025;-72
2023/05/21 05:47:36;;;;;;;3.88;1.33;;;15.50;99.90;;;;;;5085968;28;20043;-71
2023/05/21 05:50:05;;;;;;;3.97;1.50;;;15.50;99.90;;;;;;5093249;28;20077;-72
2023/05/21 05:52:34;;;;;;;3.33;1.38;;;15.50;99.90;;;;;;5088693;28;20067;-71
2023/05/21 05:55:04;;;;;;;4.43;1.60;;;15.60;99.90;;;;;;5095171;28;20034;-72
2023/05/21 05:57:29;;;;;;;3.45;1.30;;;15.60;99.90;;;;;;5091624;28;20036;-70
2023/05/21 05:59:55;;;;;;;4.82;1.88;;;15.70;99.90;;;;;;5085984;28;20090;-72
2023/05/21 06:02:23;;;;;;;4.10;1.90;;;15.70;99.90;;;;;;5085847;28;20115;-71
2023/05/21 06:04:52;;;;;;;4.45;1.77;;;15.80;99.90;;;;;;5088988;28;20035;-71
2023/05/21 06:07:17;;;;;;;4.97;1.70;;;15.80;99.90;;;;;;5096929;28;20078;-71
2023/05/21 06:09:43;;;;;;;5.78;1.60;;;15.80;99.90;;;;;;5085176;28;20413;-71
2023/05/21 06:12:08;;;;;;;4.47;1.80;;;15.80;99.90;;;;;;5087117;28;20032;-72
2023/05/21 06:14:34;;;;;;;8.45;1.95;;;15.80;99.90;;;;;;5090025;28;20127;-71
2023/05/21 06:16:59;;;;;;;2.60;1.48;;;15.90;99.90;;;;;;5086732;28;20117;-72
2023/05/21 06:19:25;;;;;;;10.93;1.92;;;15.90;99.90;;;;;;5086227;28;20047;-71
2023/05/21 06:21:50;;;;;;;2.60;1.40;;;16.00;99.90;;;;;;5089922;28;20044;-70
2023/05/21 06:24:16;;;;;;;4.95;1.77;;;16.10;99.90;;;;;;5087199;28;20024;-70
2023/05/21 06:26:41;;;;;;;2.60;1.30;;;16.10;99.90;;;;;;5088786;28;20025;-71
2023/05/21 06:29:13;;;;;;;3.10;1.63;;;16.10;99.90;;;;;;5090888;28;20482;-71
2023/05/21 06:31:38;;;;;;;4.30;2.00;;;16.20;99.90;;;;;;5096005;28;20101;-73
2023/05/21 06:34:04;;;;;;;3.33;1.38;;;16.30;99.90;;;;;;5099249;28;20059;-72
2023/05/21 06:36:31;;;;;;;3.72;1.50;;;16.50;99.90;;;;;;5087067;28;20067;-71
2023/05/21 06:38:56;;;;;;;4.35;1.98;;;16.70;99.90;;;;;;5094346;28;20028;-72
2023/05/21 06:41:25;;;;;;;2.97;1.65;;;17.00;99.90;;;;;;5085933;28;20035;-73
2023/05/21 06:43:59;;;;;;;6.00;1.98;;;17.20;99.90;;;;;;5084432;28;20483;-72
2023/05/21 06:46:25;;;;;;;5.75;1.73;;;17.40;99.90;;;;;;5094906;28;20040;-71
2023/05/21 06:48:51;;;;;;;3.40;1.55;;;17.50;99.90;;;;;;5084750;28;20135;-71
2023/05/21 06:51:22;;;;;;;4.18;1.92;;;17.60;99.90;;;;;;5086850;28;20594;-71
2023/05/21 06:53:48;;;;;;;5.38;2.40;;;17.70;99.90;;;;;;5092272;28;20035;-71
2023/05/21 06:56:13;;;;;;;4.22;2.00;;;17.70;99.90;;;;;;5085688;28;20073;-71
2023/05/21 06:58:39;;;;;;;6.03;1.88;;;17.80;99.90;;;;;;5091799;28;20047;-72
2023/05/21 07:01:05;;;;;;;3.65;1.80;;;17.80;99.90;;;;;;5088131;28;20036;-72
2023/05/21 07:03:31;;;;;;;7.35;2.30;;;18.00;99.90;;;;;;5088676;27;20071;-71
2023/05/21 07:05:57;;;;;;;4.05;1.70;;;18.20;99.90;;;;;;5095204;28;20122;-71
2023/05/21 07:08:22;;;;;;;3.78;1.60;;;18.50;99.90;;;;;;5093898;28;20039;-72
2023/05/21 07:10:48;;;;;;;7.20;1.85;;;18.70;99.90;;;;;;5088662;28;20032;-72
2023/05/21 07:13:14;;;;;;;8.07;2.05;;;18.70;99.90;;;;;;5085084;28;20050;-73
2023/05/21 07:15:40;;;;;;;3.05;2.00;;;18.90;99.90;;;;;;5083542;28;20040;-71
2023/05/21 07:18:06;;;;;;;8.43;1.88;;;18.80;99.90;;;;;;5087539;28;20066;-72
2023/05/21 07:20:31;;;;;;;6.35;2.08;;;18.90;99.90;;;;;;5082377;28;20032;-71
2023/05/21 07:23:00;;;;;;;3.75;1.75;;;19.00;99.90;;;;;;5085896;28;20210;-71
2023/05/21 07:25:25;;;;;;;3.10;1.55;;;19.10;99.90;;;;;;5085178;28;20541;-71
2023/05/21 07:27:51;;;;;;;3.55;2.13;;;19.40;99.90;;;;;;5083796;28;20034;-71
2023/05/21 07:30:17;;;;;;;4.97;1.60;;;19.70;99.90;;;;;;5084574;28;20058;-71
2023/05/21 07:32:42;;;;;;;2.78;1.50;;;20.00;99.90;;;;;;5087802;28;20039;-71
2023/05/21 07:35:08;;;;;;;4.03;2.10;;;20.50;99.80;;;;;;5083807;28;20115;-71
2023/05/21 07:37:33;;;;;;;2.47;1.50;;;20.80;98.40;;;;;;5076761;28;20524;-72
2023/05/21 07:39:59;;;;;;;3.80;1.73;;;20.90;98.30;;;;;;5082933;28;20123;-71
2023/05/21 07:42:25;;;;;;;5.32;2.10;;;21.00;98.40;;;;;;5086310;28;20078;-71
2023/05/21 07:44:51;;;;;;;4.35;1.98;;;20.90;98.50;;;;;;5084392;28;20081;-71
2023/05/21 07:47:17;;;;;;;6.60;1.90;;;20.70;98.00;;;;;;5087382;28;20036;-71
2023/05/21 07:49:42;;;;;;;3.45;1.60;;;20.40;98.30;;;;;;5092656;28;20035;-71
2023/05/21 07:52:08;;;;;;;3.08;1.77;;;20.20;99.10;;;;;;5090650;28;20036;-71
2023/05/21 07:54:33;;;;;;;8.20;2.15;;;20.20;98.90;;;;;;5087670;28;20036;-72
2023/05/21 07:57:01;;;;;;;4.47;1.77;;;20.10;99.20;;;;;;5089855;28;20054;-72
2023/05/21 07:59:27;;;;;;;2.95;1.70;;;20.10;99.40;;;;;;5083785;28;20520;-73
2023/05/21 08:01:52;;;;;;;4.32;1.50;;;20.10;99.60;;;;;;5086801;28;20024;-73
2023/05/21 08:04:18;;;;;;;4.47;2.28;;;20.10;98.90;;;;;;5086984;28;20078;-72
2023/05/21 08:06:43;;;;;;;6.07;2.03;;;20.00;99.10;;;;;;5081002;28;20035;-71
2023/05/21 08:09:09;;;;;;;3.60;1.90;;;20.00;99.00;;;;;;5084486;28;20573;-73
2023/05/21 08:11:35;;;;;;;5.70;2.00;;;20.00;99.20;;;;;;5085968;28;20039;-71
2023/05/21 08:14:00;;;;;;;3.05;1.83;;;19.90;99.50;;;;;;5084657;28;20108;-72
2023/05/21 08:16:26;;;;;;;4.03;2.42;;;19.90;99.10;;;;;;5085143;28;20099;-72
2023/05/21 08:18:51;;;;;;;2.83;1.83;;;20.00;99.00;;;;;;5086073;28;20089;-72
2023/05/21 08:21:17;;;;;;;4.10;2.42;;;20.20;99.20;;;;;;5084508;28;20213;-70
2023/05/21 08:23:46;;;;;;;4.57;2.00;;;20.30;98.60;;;;;;5082167;28;20119;-74
2023/05/21 08:26:17;;;;;;;3.97;1.92;;;20.10;98.60;;;;;;5084600;28;20032;-71
2023/05/21 08:28:43;;;;;;;3.95;1.70;;;20.20;98.70;;;;;;5083617;28;20432;-71
2023/05/21 08:31:08;;;;;;;7.30;2.90;;;20.10;98.60;;;;;;5086533;28;20028;-72
2023/05/21 08:33:37;;;;;;;2.13;1.45;;;20.10;98.60;;;;;;5078385;28;20480;-72
2023/05/21 08:36:07;;;;;;;2.28;1.52;;;20.20;99.40;;;;;;5084202;28;20028;-72
2023/05/21 08:38:35;;;;;;;6.03;1.93;;;20.20;98.40;;;;;;5086005;28;20032;-71
2023/05/21 08:41:05;;;;;;;3.72;2.03;;;20.20;98.90;;;;;;5095266;28;20262;-74
2023/05/21 08:43:30;;;;;;;3.53;2.10;;;20.30;99.10;;;;;;5088782;28;20036;-71
2023/05/21 08:45:59;;;;;;;2.90;2.10;;;20.30;98.50;;;;;;5092990;28;20269;-71
2023/05/21 08:48:24;;;;;;;7.07;2.45;;;20.40;98.70;;;;;;5088449;28;20035;-72
2023/05/21 08:50:52;;;;;;;4.80;1.70;;;20.40;98.70;;;;;;5094766;28;20032;-71
2023/05/21 08:53:17;;;;;;;5.45;1.95;;;20.40;98.60;;;;;;5090884;28;20024;-72
2023/05/21 08:55:43;;;;;;;5.38;1.90;;;20.50;98.60;;;;;;5093809;27;20525;-71
2023/05/21 08:58:13;;;;;;;15.77;2.13;;;20.40;98.10;;;;;;5094227;28;20051;-71
2023/05/21 09:00:38;;;;;;;6.00;1.95;;;20.40;98.50;;;;;;5093475;28;20033;-71
2023/05/21 09:03:06;;;;;;;4.82;2.58;;;20.40;98.50;;;;;;5096077;28;20051;-71
2023/05/21 09:05:33;;;;;;;4.57;2.40;;;20.50;98.60;;;;;;5095224;27;20467;-73
2023/05/21 09:08:12;;;;;;;3.72;2.30;;;20.60;98.40;;;;;;5093177;28;20028;-71
2023/05/21 09:10:41;;;;;;;6.78;2.28;;;20.70;98.70;;;;;;5091598;28;20035;-72
2023/05/21 09:13:09;;;;;;;4.20;1.80;;;20.80;98.20;;;;;;5095024;27;20088;-71
2023/05/21 09:15:34;;;;;;;3.70;2.00;;;21.00;97.90;;;;;;5090853;28;20051;-71
2023/05/21 09:18:00;;;;;;;5.72;1.63;;;20.90;98.10;;;;;;5090606;28;20036;-71
2023/05/21 09:20:27;;;;;;;3.90;2.00;;;21.00;98.00;;;;;;5095383;28;20545;-72
2023/05/21 09:22:54;;;;;;;4.45;2.05;;;21.10;97.70;;;;;;5087598;28;20035;-72
2023/05/21 09:25:26;;;;;;;4.55;2.10;;;21.00;97.60;;;;;;5088262;28;20480;-72
2023/05/21 09:27:54;;;;;;;3.80;2.30;;;20.90;97.40;;;;;;5094233;28;20069;-71
2023/05/21 09:30:22;;;;;;;3.58;2.13;;;20.80;97.90;;;;;;5090690;28;20055;-71
2023/05/21 09:32:58;;;;;;;4.85;2.15;;;20.80;97.90;;;;;;5087591;28;20055;-72
2023/05/21 09:35:24;;;;;;;5.07;2.38;;;20.90;97.90;;;;;;5091591;28;20685;-72
2023/05/21 09:37:52;;;;;;;3.90;2.60;;;20.90;98.10;;;;;;5093695;28;20028;-71
2023/05/21 09:40:23;;;;;;;5.05;1.63;;;21.00;98.10;;;;;;5087148;28;20150;-70
2023/05/21 09:42:53;;;;;;;6.22;1.67;;;20.90;97.70;;;;;;5092855;28;20036;-71
2023/05/21 09:45:26;;;;;;;3.20;1.35;;;21.00;97.90;;;;;;5088149;28;20036;-71
2023/05/21 09:47:54;;;;;;;3.65;1.88;;;21.10;98.20;;;;;;5085918;28;20032;-72
2023/05/21 09:50:21;;;;;;;6.20;2.00;;;21.10;98.20;;;;;;5090093;28;20557;-70
2023/05/21 09:52:49;;;;;;;6.28;2.10;;;21.00;98.50;;;;;;5090012;28;20507;-72
2023/05/21 09:55:16;;;;;;;3.40;1.60;;;20.80;98.70;;;;;;5084972;28;20035;-71
2023/05/21 09:57:46;;;;;;;6.25;1.85;;;20.80;98.40;;;;;;5080790;28;20587;-72
2023/05/21 10:00:23;;;;;;;2.97;1.95;;;20.90;98.30;;;;;;5086008;28;20028;-71
2023/05/21 10:02:53;;;;;;;5.18;1.55;;;20.90;98.90;;;;;;5081264;28;20469;-70
2023/05/21 10:05:19;;;;;;;8.75;2.05;;;21.20;98.70;;;;;;5087775;28;20436;-71
2023/05/21 10:07:50;;;;;;;4.70;1.85;;;21.20;98.80;;;;;;5092969;28;20028;-71
2023/05/21 10:10:18;;;;;;;3.33;1.85;;;21.30;98.60;;;;;;5098344;28;20114;-71
2023/05/21 10:12:46;;;;;;;4.95;1.70;;;21.50;98.50;;;;;;5090450;28;20067;-71
2023/05/21 10:15:15;;;;;;;3.60;1.92;;;21.60;98.20;;;;;;5089224;28;20054;-70
2023/05/21 10:17:44;;;;;;;4.90;2.25;;;21.60;98.40;;;;;;5085315;28;20038;-72
2023/05/21 10:20:11;;;;;;;6.32;2.90;;;21.60;98.20;;;;;;5089131;28;20427;-73
2023/05/21 10:22:40;;;;;;;6.82;2.47;;;21.50;98.20;;;;;;5089403;28;20036;-72
2023/05/21 10:25:11;;;;;;;7.55;2.15;;;21.60;98.60;;;;;;5085762;28;20059;-71
2023/05/21 10:27:38;;;;;;;4.80;2.15;;;21.70;98.40;;;;;;5104634;28;20072;-73
2023/05/21 10:30:05;;;;;;;3.70;1.75;;;21.70;97.80;;;;;;5091505;28;20025;-72
2023/05/21 10:32:31;;;;;;;3.45;1.80;;;21.60;98.00;;;;;;5085122;28;20495;-73
2023/05/21 10:34:58;;;;;;;5.00;1.98;;;21.80;98.20;;;;;;5085335;28;20103;-71
2023/05/21 10:37:26;;;;;;;4.45;2.28;;;21.70;98.10;;;;;;5090409;28;20028;-73
2023/05/21 10:39:52;;;;;;;4.82;1.77;;;21.70;98.20;;;;;;5094346;28;20051;-73
2023/05/21 10:42:30;;;;;;;4.80;1.75;;;21.70;98.20;;;;;;5085571;28;20028;-72
2023/05/21 10:45:14;;;;;;;4.15;1.85;;;21.50;98.50;;;;;;5094821;28;20381;-74
2023/05/21 10:48:10;;;;;;;4.60;1.42;;;21.40;99.40;;;;;;5086350;28;20024;-71
2023/05/21 10:50:43;;;;;;;6.07;2.10;;;21.30;98.90;;;;;;5088001;28;20104;-71
2023/05/21 10:53:35;;;;;;;5.80;1.67;;;21.40;99.20;;;;;;5087311;28;20036;-71
2023/05/21 10:56:21;;;;;;;6.07;3.08;;;21.40;98.80;;;;;;5088384;28;20043;-71
2023/05/21 10:59:17;;;;;;;4.00;1.98;;;21.30;98.30;;;;;;5091112;28;24494;-70
2023/05/21 11:01:51;;;;;;;5.55;2.03;;;21.40;98.70;;;;;;5093732;28;20039;-70
2023/05/21 11:04:26;;;;;;;4.35;1.92;;;21.40;98.40;;;;;;5093071;28;20028;-72
2023/05/21 11:06:52;;;;;;;3.90;1.95;;;21.40;98.50;;;;;;5086339;28;20738;-72
2023/05/21 11:09:25;;;;;;;3.65;1.80;;;21.40;98.90;;;;;;5091629;28;20391;-71
2023/05/21 11:11:53;;;;;;;6.00;2.53;;;21.40;98.60;;;;;;5087568;28;20050;-71
2023/05/21 11:14:38;;;;;;;5.38;1.80;;;21.40;98.70;;;;;;5097221;28;20059;-70
2023/05/21 11:17:13;;;;;;;5.47;1.65;;;21.50;99.30;;;;;;5100562;28;20575;-73
2023/05/21 11:19:43;;;;;;;4.10;1.90;;;21.50;98.40;;;;;;5082196;28;20056;-71
2023/05/21 11:22:25;;;;;;;3.95;1.90;;;21.50;98.30;;;;;;5098764;28;20081;-70
2023/05/21 11:24:52;;;;;;;4.57;2.00;;;21.40;98.90;;;;;;5078767;28;20124;-71
2023/05/21 11:27:32;;;;;;;3.83;1.80;;;21.70;99.10;;;;;;5087028;28;20032;-70
2023/05/21 11:29:58;;;;;;;8.07;2.10;;;21.70;98.60;;;;;;5089798;28;20036;-71
2023/05/21 11:32:39;;;;;;;4.88;1.75;;;21.70;98.40;;;;;;5084184;28;20117;-71
2023/05/21 11:35:06;;;;;;;3.03;1.55;;;21.80;99.00;;;;;;5079863;28;20032;-71
2023/05/21 11:37:33;;;;;;;3.35;1.75;;;21.80;98.60;;;;;;5090039;28;20038;-71
2023/05/21 11:40:19;;;;;;;6.65;2.08;;;21.70;99.00;;;;;;5088473;28;20028;-71
2023/05/21 11:42:50;;;;;;;3.38;1.98;;;21.30;99.20;;;;;;5089442;28;20418;-71
2023/05/21 11:45:20;;;;;;;5.05;2.08;;;21.30;99.30;;;;;;5092417;28;20035;-72
2023/05/21 11:47:51;;;;;;;4.28;1.70;;;21.30;99.30;;;;;;5094449;28;20558;-72
2023/05/21 11:50:17;;;;;;;8.38;2.40;;;21.30;99.30;;;;;;5094410;28;20031;-73
2023/05/21 11:52:44;;;;;;;7.85;1.92;;;21.30;99.50;;;;;;5083406;28;20032;-73
2023/05/21 11:55:21;;;;;;;5.05;2.10;;;21.40;99.30;;;;;;5093835;28;20515;-72
2023/05/21 11:58:07;;;;;;;5.40;2.65;;;21.30;99.70;;;;;;5092547;28;20020;-71
2023/05/21 12:00:42;;;;;;;4.95;2.45;;;21.20;99.80;;;;;;5091735;28;20055;-73
2023/05/21 12:03:11;;;;;;;4.43;2.10;;;21.30;99.40;;;;;;5118858;27;20389;-71
2023/05/21 12:05:46;;;;;;;4.18;1.98;;;21.20;99.40;;;;;;5093248;28;20036;-73
2023/05/21 12:08:12;;;;;;;5.10;1.73;;;21.10;99.80;;;;;;5084329;28;20093;-71
2023/05/21 12:10:43;;;;;;;4.28;2.65;;;21.20;99.40;;;;;;5089509;28;20573;-72
2023/05/21 12:13:15;;;;;;;3.15;1.67;;;21.10;99.60;;;;;;5096355;28;20035;-72
2023/05/21 12:15:41;;;;;;;5.07;2.03;;;21.20;99.80;;;;;;5093353;28;20043;-74
2023/05/21 12:18:06;;;;;;;6.13;2.25;;;21.20;99.90;;;;;;5097288;28;20027;-72
2023/05/21 12:20:32;;;;;;;5.72;2.67;;;21.40;99.40;;;;;;5093126;28;20032;-73
2023/05/21 12:22:58;;;;;;;5.93;1.98;;;21.40;99.20;;;;;;5095169;28;20046;-72
2023/05/21 12:25:23;;;;;;;6.55;2.83;;;21.30;99.00;;;;;;5092586;28;20039;-72
2023/05/21 12:27:57;;;;;;;5.35;2.28;;;21.20;99.00;;;;;;5088528;28;20040;-73
2023/05/21 12:30:24;;;;;;;5.28;2.33;;;21.20;98.80;;;;;;5090899;28;20031;-72
2023/05/21 12:32:57;;;;;;;4.20;2.05;;;21.00;99.40;;;;;;5091009;28;20089;-73
2023/05/21 12:35:22;;;;;;;6.55;2.20;;;21.00;99.20;;;;;;5089758;28;20043;-74
2023/05/21 12:37:51;;;;;;;7.68;2.55;;;21.00;99.40;;;;;;5088703;28;20036;-72
2023/05/21 12:40:20;;;;;;;5.40;2.30;;;21.00;99.50;;;;;;5092893;28;20635;-72
2023/05/21 12:42:46;;;;;;;5.50;2.03;;;21.00;99.40;;;;;;5093588;28;20042;-71
2023/05/21 12:45:20;;;;;;;5.00;1.98;;;21.00;99.50;;;;;;5096173;28;20055;-72
2023/05/21 12:47:48;;;;;;;5.68;2.20;;;21.00;99.90;;;;;;5092071;28;20608;-74
2023/05/21 12:50:20;;;;;;;4.22;1.90;;;21.00;99.20;;;;;;5094298;28;20024;-73
2023/05/21 12:52:46;;;;;;;6.43;2.20;;;21.00;99.50;;;;;;5091645;28;20032;-72
2023/05/21 12:55:15;;;;;;;8.45;2.65;;;21.10;99.50;;;;;;5095665;28;20488;-73